Aérodrome :
LOGIN :

S'inscrire | Disclaimer

   EN    FR    IT 

 










Légende :    VFR   VFR Marginal   IFR   IFR Intensif   IFR Très Intensif
Visi : 
Plafond : 
>= 8 km
>= 3000ft
5 à 8 km
1000 à 3000 ft
1500m à 5 km
500 à 1000 ft
800 à 1500m
200 à 500 ft
< 800m
< 200 ft
Symboles :   Orages  Brouillard  Fortes neiges  Fortes précipitations  Vent > 20 kt
SIGMETs :   Divers  Orages  Givrage  Turbulence  Onde Orograph.  Cendres Volcan.







- Altitude de l'aérodrome : 499 ft
- Code IATA : TLS
- Voir les cartes d'approche


LFBO - Toulouse / Blagnac

DERNIER METAR :
  • 231000Z AUTO 21005KT 170V250 9999 FEW039 SCT048 BKN076 07/04 Q1010 NOSIG

METARs EXPIRÉS :
  • 230930Z AUTO 23006KT 200V270 9999 -RA FEW016 BKN044 BKN052 06/04 Q1010 NOSIG
  • 230900Z AUTO 22009KT 9999 -RA FEW012/// BKN030/// BKN038/// ///TCU 05/03 Q1010 BECMG SCT016 BKN050
  • 230830Z AUTO 23008KT 9999 -RA SCT013/// SCT031/// BKN049/// ///TCU 06/04 Q1010 BECMG SCT016 BKN050
  • 230800Z AUTO 23009KT 9999 -RA FEW012/// BKN039/// OVC046/// ///TCU 06/04 Q1009 BECMG SCT016 BKN050
  • 230730Z AUTO 21006KT 9999 -RA FEW016/// BKN035/// OVC044/// ///CB 06/04 Q1009 BECMG SCT016 BKN050

TAF TAF LFBO
Valide du 23 à 06h jusqu'au 24 à 12h UTC


230500Z 2306/2412 25005KT 9999 BKN035
PROB40
TEMPO 2306/2308 4000 RA BKN008
BECMG 2308/2310 SCT016 BKN050
BECMG 2311/2313 VRB02KT BKN040
BECMG 2314/2316 03005KT
BECMG 2318/2320 CAVOK
BECMG 2320/2322 VRB02KT
PROB30
TEMPO 2320/2404 BKN035
PROB30
TEMPO 2400/2406 3000 BR
BECMG 2408/2410 BKN020
ATIS : +33 5 62 74 66 36
Pas de NOTAMs connus pour ce terrain.



MET'MAP, la Météo Aéronautique d'un coup d'oeil ! - Copyright ORBIFLY Décembre 2007 - Disclaimer

ORBIFLY MET'MAP TEAM :

Programmation & Développement : Alexandra Zaïnal
Conception & Développement : Baudouin d'Aumeries
Co-Programmation & Développement : Marc-Olivier Méhu
Soutien technique & logistique : Manuel Goepfert

Contact : metmap@orbifly.com




SOURCES & CREDITS :

   NOAA